Time;durP1;ratioP1;P1;durP2;ratioP2;P2;SDS_P1;SDS_P2;PMS_P1;PMS_P2;Temp;Humidity;BMP_temperature;BMP_pressure;BME280_temperature;BME280_humidity;BME280_pressure;Samples;Min_cycle;Max_cycle;Signal;HPM_P1;HPM_P2
2021/10/21 00:00:47;;;;;;;19.70;11.07;;;;;;;6.43;100.00;97780.91;5025737;28;20057;-61
2021/10/21 00:03:14;;;;;;;21.85;12.10;;;;;;;6.72;100.00;97830.56;5026733;28;20050;-59
2021/10/21 00:05:41;;;;;;;22.42;11.40;;;;;;;6.42;100.00;97771.00;5024809;28;20045;-59
2021/10/21 00:08:08;;;;;;;19.17;10.70;;;;;;;6.81;100.00;97827.78;5026507;28;20046;-58
2021/10/21 00:10:35;;;;;;;22.90;11.13;;;;;;;6.82;100.00;97813.69;5024631;28;20061;-59
2021/10/21 00:13:01;;;;;;;18.67;10.60;;;;;;;6.16;100.00;97753.75;5026019;28;20046;-60
2021/10/21 00:15:29;;;;;;;18.25;9.77;;;;;;;6.43;100.00;97786.41;5025936;28;20841;-59
2021/10/21 00:17:56;;;;;;;18.35;10.27;;;;;;;6.60;100.00;97819.41;5025890;28;20053;-61
2021/10/21 00:20:23;;;;;;;20.27;10.07;;;;;;;6.54;100.00;97817.97;5024056;28;20057;-58
2021/10/21 00:22:49;;;;;;;16.98;9.80;;;;;;;6.61;100.00;97817.47;5026109;28;20053;-58
2021/10/21 00:25:16;;;;;;;23.85;10.68;;;;;;;6.36;100.00;97813.59;5025245;28;20077;-62
2021/10/21 00:27:43;;;;;;;25.27;11.57;;;;;;;6.12;100.00;97805.00;5025377;28;20053;-58
2021/10/21 00:30:10;;;;;;;23.85;11.30;;;;;;;6.27;100.00;97812.78;5023624;28;20064;-59
2021/10/21 00:32:36;;;;;;;23.15;11.48;;;;;;;6.27;100.00;97807.28;5025840;28;20483;-58
2021/10/21 00:35:03;;;;;;;23.33;11.18;;;;;;;6.04;100.00;97761.81;5025219;28;20053;-59
2021/10/21 00:37:31;;;;;;;23.42;11.60;;;;;;;6.33;100.00;97794.97;5025609;28;20425;-58
2021/10/21 00:39:57;;;;;;;20.90;11.57;;;;;;;6.36;100.00;97805.34;5025576;28;20061;-58
2021/10/21 00:42:24;;;;;;;22.55;11.07;;;;;;;5.34;100.00;97629.38;5024077;28;20053;-60
2021/10/21 00:44:51;;;;;;;21.95;11.35;;;;;;;5.71;100.00;97706.47;5024973;28;20049;-58
2021/10/21 00:47:18;;;;;;;20.02;11.18;;;;;;;5.77;100.00;97716.16;5023539;28;20520;-62
2021/10/21 00:49:45;;;;;;;21.45;11.32;;;;;;;6.28;100.00;97788.81;5023566;28;20515;-58
2021/10/21 00:52:12;;;;;;;25.48;11.73;;;;;;;6.15;100.00;97763.91;5025309;28;20554;-58
2021/10/21 00:54:40;;;;;;;24.73;12.55;;;;;;;6.32;100.00;97793.38;5024756;28;20421;-58
2021/10/21 00:57:10;;;;;;;25.60;12.57;;;;;;;6.25;100.00;97776.53;5025111;28;20055;-59
2021/10/21 00:59:38;;;;;;;22.33;11.82;;;;;;;5.79;100.00;97682.84;5024764;28;20053;-59
2021/10/21 01:02:05;;;;;;;22.85;12.23;;;;;;;5.87;100.00;97720.56;5025487;28;20065;-60
2021/10/21 01:04:32;;;;;;;24.00;11.18;;;;;;;6.32;100.00;97768.63;5023443;28;20045;-58
2021/10/21 01:06:59;;;;;;;22.40;11.55;;;;;;;6.28;100.00;97778.63;5024771;28;20052;-59
2021/10/21 01:09:26;;;;;;;25.52;12.13;;;;;;;6.06;100.00;97767.81;5024428;28;20065;-59
2021/10/21 01:11:53;;;;;;;25.67;13.38;;;;;;;6.03;100.00;97743.69;5024869;28;20046;-59
2021/10/21 01:14:20;;;;;;;25.77;13.18;;;;;;;6.19;100.00;97761.34;5023546;28;20045;-59
2021/10/21 01:16:46;;;;;;;29.25;13.15;;;;;;;6.25;100.00;97751.78;5023583;28;20886;-58
2021/10/21 01:19:22;;;;;;;22.23;11.95;;;;;;;6.28;100.00;97758.56;5024731;28;20050;-58
2021/10/21 01:21:52;;;;;;;27.80;12.50;;;;;;;6.21;100.00;97753.56;5024933;28;20068;-58
2021/10/21 01:24:20;;;;;;;20.90;11.45;;;;;;;6.05;100.00;97733.97;5024975;28;20079;-59
2021/10/21 01:26:49;;;;;;;22.10;11.88;;;;;;;6.17;100.00;97747.09;5024623;28;20056;-59
2021/10/21 01:29:18;;;;;;;20.83;10.80;;;;;;;6.03;100.00;97721.69;5024385;28;20065;-60
2021/10/21 01:31:46;;;;;;;20.65;10.90;;;;;;;6.10;99.61;97719.28;5024144;28;20084;-61
2021/10/21 01:34:14;;;;;;;21.45;11.32;;;;;;;5.90;98.93;97748.22;5024404;28;20140;-59
2021/10/21 01:36:43;;;;;;;22.52;11.25;;;;;;;5.68;100.00;97728.28;5024460;28;20171;-61
2021/10/21 01:39:12;;;;;;;22.25;11.15;;;;;;;5.82;99.57;97745.47;5022292;28;20436;-59
2021/10/21 01:41:39;;;;;;;22.65;11.85;;;;;;;5.03;99.71;97640.47;5023787;28;20504;-58
2021/10/21 01:44:06;;;;;;;21.83;11.98;;;;;;;5.77;100.00;97742.88;5024062;28;20064;-61
2021/10/21 01:46:32;;;;;;;22.25;10.98;;;;;;;5.78;99.49;97766.47;5022525;28;20057;-59
2021/10/21 01:48:59;;;;;;;21.90;11.07;;;;;;;5.59;100.00;97724.72;5022774;28;20049;-57
2021/10/21 01:51:26;;;;;;;24.20;12.18;;;;;;;5.77;100.00;97738.16;5023949;28;20065;-57
2021/10/21 01:53:53;;;;;;;23.77;11.88;;;;;;;5.28;100.00;97669.09;5023803;28;20503;-59
2021/10/21 01:56:19;;;;;;;19.45;11.50;;;;;;;5.81;99.89;97754.81;5024006;28;20056;-60
2021/10/21 01:58:46;;;;;;;30.65;13.93;;;;;;;5.46;99.12;97681.72;5024035;28;20063;-60
2021/10/21 02:01:13;;;;;;;30.70;16.02;;;;;;;5.75;99.56;97725.88;5023494;28;20163;-58
2021/10/21 02:03:40;;;;;;;33.10;16.35;;;;;;;5.78;99.99;97736.22;5024054;28;20510;-58
2021/10/21 02:06:09;;;;;;;35.92;15.57;;;;;;;5.81;100.00;97727.34;5023695;28;20065;-58
2021/10/21 02:08:35;;;;;;;36.00;15.63;;;;;;;5.11;100.00;97597.66;5023963;28;20060;-58
2021/10/21 02:11:02;;;;;;;27.00;13.05;;;;;;;5.77;100.00;97704.38;5022358;28;20045;-58
2021/10/21 02:13:29;;;;;;;28.10;14.77;;;;;;;5.87;100.00;97720.56;5024198;28;20053;-59
2021/10/21 02:15:55;;;;;;;25.08;13.35;;;;;;;5.79;100.00;97707.59;5023489;28;20060;-58
2021/10/21 02:18:22;;;;;;;33.72;14.27;;;;;;;5.67;100.00;97713.75;5023792;28;20052;-59
2021/10/21 02:20:49;;;;;;;31.95;14.15;;;;;;;5.83;100.00;97725.91;5023558;28;20065;-58
2021/10/21 02:23:15;;;;;;;30.73;15.52;;;;;;;5.67;100.00;97723.94;5023836;28;20069;-58
2021/10/21 02:25:42;;;;;;;28.65;14.13;;;;;;;5.54;100.00;97727.63;5021800;28;20537;-57
2021/10/21 02:28:09;;;;;;;26.08;13.15;;;;;;;5.60;100.00;97726.34;5022359;28;20065;-59
2021/10/21 02:30:36;;;;;;;27.23;13.45;;;;;;;5.70;100.00;97726.03;5023110;28;20054;-58
2021/10/21 02:33:03;;;;;;;27.30;14.13;;;;;;;5.42;100.00;97669.78;5022310;28;20053;-59
2021/10/21 02:35:30;;;;;;;25.55;12.45;;;;;;;5.24;100.00;97643.41;5022557;28;20045;-57
2021/10/21 02:37:56;;;;;;;29.98;12.40;;;;;;;4.96;100.00;97589.91;5023778;28;20065;-58
2021/10/21 02:40:23;;;;;;;25.58;10.48;;;;;;;5.06;100.00;97614.31;5023732;28;20060;-58
2021/10/21 02:42:50;;;;;;;19.25;10.30;;;;;;;5.67;100.00;97718.44;5023483;28;20563;-58
2021/10/21 02:45:17;;;;;;;20.15;10.90;;;;;;;5.73;100.00;97714.41;5023175;28;20056;-60
2021/10/21 02:47:44;;;;;;;22.83;10.50;;;;;;;5.77;100.00;97712.63;5023685;28;20245;-57
2021/10/21 02:50:11;;;;;;;19.40;10.13;;;;;;;5.67;100.00;97715.69;5024749;28;20579;-58
2021/10/21 02:52:38;;;;;;;22.75;11.18;;;;;;;5.61;100.00;97716.97;5027416;28;20148;-60
2021/10/21 02:55:05;;;;;;;24.10;11.90;;;;;;;5.54;100.00;97711.16;5027456;28;20453;-57
2021/10/21 02:57:32;;;;;;;27.15;13.32;;;;;;;5.51;100.00;97728.28;4333505;28;20003902;-60
2021/10/21 02:59:59;;;;;;;20.75;11.32;;;;;;;5.50;100.00;97715.69;5025452;28;20041;-57
2021/10/21 03:02:26;;;;;;;23.52;11.60;;;;;;;5.43;100.00;97709.84;5027263;28;20543;-58
2021/10/21 03:04:53;;;;;;;23.70;11.18;;;;;;;5.37;100.00;97711.13;5026885;28;20681;-58
2021/10/21 03:07:19;;;;;;;24.67;11.07;;;;;;;5.38;100.00;97729.22;5027011;28;20056;-61
2021/10/21 03:09:46;;;;;;;21.08;11.35;;;;;;;5.23;100.00;97699.47;5027220;28;20053;-58
2021/10/21 03:12:13;;;;;;;21.65;11.65;;;;;;;4.71;100.00;97621.63;5026720;28;20427;-61
2021/10/21 03:14:39;;;;;;;20.05;10.70;;;;;;;5.31;100.00;97715.16;5026977;28;20068;-59
2021/10/21 03:17:07;;;;;;;26.10;12.50;;;;;;;5.39;100.00;97708.88;5026924;28;20058;-59
2021/10/21 03:19:34;;;;;;;41.78;18.98;;;;;;;4.98;100.00;97653.53;5026583;28;20053;-58
2021/10/21 03:22:01;;;;;;;41.42;20.65;;;;;;;4.21;100.00;97529.84;5026226;28;20143;-59
2021/10/21 03:24:27;;;;;;;26.77;14.13;;;;;;;5.25;100.00;97702.72;5026695;28;20512;-61
2021/10/21 03:26:54;;;;;;;21.48;11.35;;;;;;;5.31;100.00;97698.69;5026643;28;20488;-58
2021/10/21 03:29:21;;;;;;;25.48;11.40;;;;;;;5.30;100.00;97713.53;5026709;28;20057;-61
2021/10/21 03:31:48;;;;;;;20.42;10.27;;;;;;;5.19;100.00;97714.94;5025621;28;20057;-58
2021/10/21 03:34:14;;;;;;;19.85;10.32;;;;;;;5.24;100.00;97706.56;5027002;28;20054;-59
2021/10/21 03:36:42;;;;;;;19.92;10.35;;;;;;;4.57;100.00;97612.72;5026063;28;20054;-60
2021/10/21 03:39:08;;;;;;;22.33;11.43;;;;;;;4.91;100.00;97658.69;5026631;28;20061;-58
2021/10/21 03:41:35;;;;;;;20.00;9.77;;;;;;;5.23;100.00;97696.72;5026472;28;20057;-59
2021/10/21 03:44:02;;;;;;;21.92;10.30;;;;;;;5.20;100.00;97700.09;5026221;28;20441;-60
2021/10/21 03:46:29;;;;;;;21.85;11.70;;;;;;;5.20;100.00;97691.88;5026429;28;20059;-60
2021/10/21 03:48:56;;;;;;;31.88;14.15;;;;;;;5.18;100.00;97696.88;5026407;28;20068;-60
2021/10/21 03:51:23;;;;;;;26.05;12.02;;;;;;;5.05;100.00;97697.78;5026205;28;20871;-59
2021/10/21 03:53:49;;;;;;;25.90;13.57;;;;;;;5.19;100.00;97688.31;5024887;28;20435;-61
2021/10/21 03:56:16;;;;;;;29.83;13.32;;;;;;;5.16;100.00;97682.63;5026115;28;20276;-59
2021/10/21 03:58:43;;;;;;;25.88;12.13;;;;;;;5.13;100.00;97680.53;5026374;28;20053;-60
2021/10/21 04:01:09;;;;;;;24.30;11.48;;;;;;;5.23;100.00;97683.00;5023978;28;20065;-59
2021/10/21 04:03:36;;;;;;;21.20;11.02;;;;;;;5.20;100.00;97670.69;5024776;28;20089;-59
2021/10/21 04:06:03;;;;;;;22.90;11.27;;;;;;;4.60;100.00;97566.25;5026051;28;20096;-59
2021/10/21 04:08:30;;;;;;;20.77;11.45;;;;;;;5.22;100.00;97671.19;5026175;28;20181;-59
2021/10/21 04:10:58;;;;;;;23.08;12.38;;;;;;;5.20;100.00;97670.69;5025792;28;20579;-59
2021/10/21 04:13:24;;;;;;;24.05;13.38;;;;;;;5.27;100.00;97661.97;5025513;28;20053;-59
2021/10/21 04:15:52;;;;;;;26.45;13.02;;;;;;;5.34;100.00;97662.31;5025499;28;20053;-60
2021/10/21 04:18:19;;;;;;;30.08;15.20;;;;;;;5.28;100.00;97658.13;5025768;28;20053;-60
2021/10/21 04:20:46;;;;;;;24.55;12.32;;;;;;;4.81;100.00;97621.34;5025283;28;20104;-58
2021/10/21 04:23:13;;;;;;;24.02;12.13;;;;;;;4.77;100.00;97597.63;5025996;28;20136;-60
2021/10/21 04:25:40;;;;;;;24.15;11.50;;;;;;;4.98;100.00;97645.31;5023831;28;20052;-58
2021/10/21 04:28:07;;;;;;;28.00;13.00;;;;;;;4.82;100.00;97661.38;5025688;28;20564;-62
2021/10/21 04:30:34;;;;;;;28.85;13.43;;;;;;;4.91;100.00;97653.19;5025117;28;20053;-58
2021/10/21 04:33:01;;;;;;;26.90;13.32;;;;;;;4.42;100.00;97602.19;5025530;28;20643;-59
2021/10/21 04:35:27;;;;;;;33.30;13.13;;;;;;;4.84;100.00;97670.13;5023712;28;20124;-60
2021/10/21 04:37:55;;;;;;;24.42;13.48;;;;;;;4.78;100.00;97651.38;5025769;28;20491;-59
2021/10/21 04:40:22;;;;;;;26.52;13.70;;;;;;;4.66;100.00;97630.03;5024607;28;20540;-60
2021/10/21 04:42:48;;;;;;;26.05;12.50;;;;;;;4.94;100.00;97658.03;5024908;28;20056;-59
2021/10/21 04:45:15;;;;;;;25.88;13.15;;;;;;;4.17;100.00;97570.78;5024843;28;20508;-59
2021/10/21 04:47:42;;;;;;;27.17;12.32;;;;;;;4.95;100.00;97649.47;5023441;28;20061;-61
2021/10/21 04:50:09;;;;;;;25.25;13.45;;;;;;;4.99;100.00;97649.66;5023555;28;20111;-59
2021/10/21 04:52:37;;;;;;;34.60;15.23;;;;;;;5.07;100.00;97646.13;5023013;28;20057;-60
2021/10/21 04:55:08;;;;;;;49.05;19.60;;;;;;;5.03;100.00;97647.88;5024022;28;20444;-59
2021/10/21 04:57:35;;;;;;;42.30;20.65;;;;;;;4.78;100.00;97601.97;5025022;28;20492;-59
2021/10/21 05:00:04;;;;;;;35.60;20.10;;;;;;;5.07;100.00;97665.34;5025026;28;20049;-59
2021/10/21 05:02:31;;;;;;;40.70;23.20;;;;;;;4.05;100.00;97498.50;5023679;28;20061;-60
2021/10/21 05:04:58;;;;;;;50.08;24.67;;;;;;;4.50;100.00;97558.31;5024951;28;20057;-59
2021/10/21 05:07:25;;;;;;;41.83;22.73;;;;;;;4.89;100.00;97630.72;5023882;28;20045;-60
2021/10/21 05:09:52;;;;;;;53.17;26.73;;;;;;;5.21;100.00;97655.84;5024619;28;20512;-58
2021/10/21 05:12:19;;;;;;;62.47;27.35;;;;;;;5.31;100.00;97646.50;5023298;28;20124;-59
2021/10/21 05:14:45;;;;;;;59.70;25.63;;;;;;;5.41;100.00;97643.41;5022309;28;20137;-61
2021/10/21 05:17:12;;;;;;;52.80;23.20;;;;;;;5.23;100.00;97606.09;5024557;28;20050;-58
2021/10/21 05:19:39;;;;;;;49.83;22.98;;;;;;;5.04;100.00;97559.72;5024356;28;20059;-60
2021/10/21 05:22:05;;;;;;;46.55;21.40;;;;;;;5.69;100.00;97636.47;5022707;28;20056;-59
2021/10/21 05:24:32;;;;;;;42.85;20.05;;;;;;;5.83;100.00;97648.13;5024972;28;20050;-60
2021/10/21 05:26:59;;;;;;;39.40;19.23;;;;;;;5.66;100.00;97602.19;5024449;28;20057;-58
2021/10/21 05:29:26;;;;;;;50.65;22.58;;;;;;;5.82;99.46;97602.53;5024617;28;20050;-59
2021/10/21 05:31:53;;;;;;;53.40;25.95;;;;;;;6.18;96.34;97638.66;5023908;28;20867;-58
2021/10/21 05:34:21;;;;;;;65.38;28.02;;;;;;;6.25;96.12;97650.00;5024069;28;20045;-59
2021/10/21 05:36:48;;;;;;;56.30;24.92;;;;;;;6.33;94.58;97717.94;5024256;28;20053;-60
2021/10/21 05:39:15;;;;;;;61.28;25.65;;;;;;;6.39;94.52;97656.09;5023964;28;20136;-60
2021/10/21 05:41:42;;;;;;;51.90;21.58;;;;;;;6.47;94.01;97636.00;5024184;28;20064;-60
2021/10/21 05:44:09;;;;;;;43.25;20.95;;;;;;;6.58;92.67;97642.75;5023074;28;20089;-60
2021/10/21 05:46:35;;;;;;;43.72;18.65;;;;;;;6.62;91.77;97652.00;5023878;28;20053;-60
2021/10/21 05:49:02;;;;;;;38.30;19.15;;;;;;;6.71;91.62;97651.94;5024227;28;20053;-58
2021/10/21 05:51:29;;;;;;;37.85;18.27;;;;;;;6.78;91.12;97649.50;5022617;28;20049;-59
2021/10/21 05:53:55;;;;;;;34.55;16.98;;;;;;;6.67;92.35;97605.00;5023425;28;20508;-61
2021/10/21 05:56:22;;;;;;;36.40;17.58;;;;;;;6.71;92.85;97589.44;5023547;28;20504;-60
2021/10/21 05:58:49;;;;;;;32.13;15.75;;;;;;;7.08;91.40;97651.13;5023992;28;20049;-60
2021/10/21 06:01:16;;;;;;;27.10;15.02;;;;;;;6.45;91.45;97525.47;5023387;28;20049;-62
2021/10/21 06:03:43;;;;;;;41.08;16.25;;;;;;;7.50;91.70;97650.84;5024707;28;20192;-60
2021/10/21 06:06:10;;;;;;;35.08;15.93;;;;;;;7.62;90.39;97650.06;5022482;28;20484;-59
2021/10/21 06:08:37;;;;;;;26.17;13.15;;;;;;;7.54;89.25;97637.97;5023938;28;20095;-59
2021/10/21 06:11:04;;;;;;;33.92;17.92;;;;;;;7.47;89.41;97582.59;5023484;28;20174;-59
2021/10/21 06:13:34;;;;;;;38.40;16.38;;;;;;;8.07;87.89;97639.13;5022537;28;20057;-61
2021/10/21 06:16:02;;;;;;;35.33;15.55;;;;;;;8.20;87.53;97640.81;5023704;28;20053;-59
2021/10/21 06:18:29;;;;;;;40.00;17.42;;;;;;;7.70;87.82;97564.53;5023586;28;20448;-59
2021/10/21 06:20:56;;;;;;;31.50;16.02;;;;;;;8.32;87.73;97643.63;5023431;28;20077;-61
2021/10/21 06:23:26;;;;;;;36.58;16.70;;;;;;;8.12;88.75;97600.31;5022051;28;20049;-59
2021/10/21 06:25:53;;;;;;;38.50;16.58;;;;;;;8.67;88.93;97631.03;5023240;28;20068;-62
2021/10/21 06:28:20;;;;;;;41.22;17.63;;;;;;;6.92;87.67;97316.88;5018024;28;20587;-60
2021/10/21 06:30:47;;;;;;;46.58;23.65;;;;;;;8.86;88.38;97595.38;5021038;28;20053;-61
2021/10/21 06:33:15;;;;;;;22.58;13.93;;;;;;;9.21;87.73;97633.22;5021479;28;20083;-60
2021/10/21 06:35:46;;;;;;;23.33;12.73;;;;;;;9.21;87.81;97635.19;5022981;28;20532;-68
2021/10/21 06:38:14;;;;;;;27.00;14.13;;;;;;;8.84;87.93;97570.03;5023179;28;20054;-69
2021/10/21 06:40:41;;;;;;;22.88;12.70;;;;;;;9.48;87.11;97637.25;5020126;28;20443;-62
2021/10/21 06:43:08;;;;;;;22.33;13.32;;;;;;;9.73;86.33;97627.72;5021223;28;20609;-68
2021/10/21 06:45:35;;;;;;;27.38;14.02;;;;;;;9.42;85.93;97558.41;5021718;28;20433;-58
2021/10/21 06:48:02;;;;;;;21.92;12.95;;;;;;;9.37;84.58;97495.09;5023500;28;20053;-73
2021/10/21 06:50:30;;;;;;;25.95;12.73;;;;;;;10.17;84.14;97623.06;5023185;28;20049;-69
2021/10/21 06:52:57;;;;;;;25.15;13.73;;;;;;;9.79;87.27;97618.00;5022046;28;20055;-67
2021/10/21 06:55:24;;;;;;;23.60;11.80;;;;;;;9.89;87.78;97625.81;5023327;28;20813;-61
2021/10/21 06:57:53;;;;;;;27.55;11.85;;;;;;;9.65;88.90;97617.59;5023008;28;20479;-60
2021/10/21 07:00:21;;;;;;;24.30;12.30;;;;;;;9.94;88.75;97613.69;5021528;28;20504;-61
2021/10/21 07:02:48;;;;;;;23.48;11.18;;;;;;;10.34;87.56;97609.72;5022507;28;20053;-68
2021/10/21 07:05:16;;;;;;;18.75;10.95;;;;;;;10.54;85.24;97594.03;5022277;28;20073;-66
2021/10/21 07:07:44;;;;;;;22.00;11.07;;;;;;;10.41;84.71;97609.91;5022361;28;20079;-71
2021/10/21 07:10:11;;;;;;;17.92;10.55;;;;;;;10.65;84.00;97589.56;5021780;28;20045;-69
2021/10/21 07:12:41;;;;;;;20.60;11.93;;;;;;;10.52;85.62;97605.47;5022876;28;20056;-62
2021/10/21 07:15:09;;;;;;;20.35;11.00;;;;;;;10.55;83.45;97546.56;5021635;28;20079;-66
2021/10/21 07:17:36;;;;;;;12.50;9.05;;;;;;;10.78;82.24;97543.16;5030615;28;20137;-69
2021/10/21 07:20:07;;;;;;;18.20;10.32;;;;;;;10.94;81.10;97541.94;5022717;28;20053;-62
2021/10/21 07:22:33;;;;;;;26.63;11.00;;;;;;;11.13;82.79;97577.25;5022425;28;20068;-67
2021/10/21 07:25:01;;;;;;;20.13;9.85;;;;;;;11.24;81.97;97594.97;5021306;28;20516;-68
2021/10/21 07:27:28;;;;;;;31.30;12.35;;;;;;;9.36;82.06;97338.66;5021474;28;20060;-67
2021/10/21 07:29:54;;;;;;;17.95;10.88;;;;;;;11.27;81.26;97577.59;5022479;28;20056;-68
2021/10/21 07:32:21;;;;;;;18.08;10.60;;;;;;;10.70;80.03;97476.47;5021871;28;20057;-61
2021/10/21 07:34:48;;;;;;;18.10;10.02;;;;;;;11.16;82.49;97579.31;5019918;28;20057;-61
2021/10/21 07:37:15;;;;;;;18.55;10.10;;;;;;;11.07;81.43;97484.41;5022335;28;20356;-66
2021/10/21 07:39:42;;;;;;;21.20;10.38;;;;;;;10.89;79.50;97422.28;5025676;28;20049;-60
2021/10/21 07:42:09;;;;;;;19.27;10.90;;;;;;;12.14;78.61;97559.22;5023803;28;20050;-63
2021/10/21 07:44:37;;;;;;;15.85;10.07;;;;;;;12.33;77.68;97559.19;5021324;28;20061;-63
2021/10/21 07:47:05;;;;;;;17.33;10.05;;;;;;;11.13;76.42;97499.63;5024294;28;20057;-68
2021/10/21 07:49:32;;;;;;;18.83;10.02;;;;;;;11.09;80.85;97565.28;5022892;28;20049;-66
2021/10/21 07:52:01;;;;;;;21.00;10.10;;;;;;;11.31;80.60;97550.72;5023905;28;20061;-64
2021/10/21 07:54:29;;;;;;;22.08;10.55;;;;;;;11.54;79.96;97543.31;5026027;28;20057;-61
2021/10/21 07:57:00;;;;;;;16.20;9.30;;;;;;;11.74;79.83;97542.19;5024089;28;20053;-63
2021/10/21 07:59:28;;;;;;;17.63;10.23;;;;;;;11.38;78.49;97434.41;5023951;28;20045;-62
2021/10/21 08:01:58;;;;;;;17.25;8.98;;;;;;;9.91;77.24;97169.69;5024038;28;20057;-71
2021/10/21 08:04:34;;;;;;;18.70;10.43;;;;;;;11.96;77.55;97538.66;5025678;28;20053;-64
2021/10/21 08:07:02;;;;;;;19.25;9.82;;;;;;;12.18;77.48;97524.00;5023941;28;20045;-66
2021/10/21 08:09:31;;;;;;;17.42;9.55;;;;;;;12.66;76.92;97523.25;5024803;28;20063;-61
2021/10/21 08:12:03;;;;;;;21.60;10.93;;;;;;;12.36;76.88;97491.78;5024765;28;20136;-70
2021/10/21 08:14:31;;;;;;;21.27;11.23;;;;;;;12.61;75.55;97479.13;5025172;28;20072;-60
2021/10/21 08:16:58;;;;;;;18.15;10.13;;;;;;;13.19;74.81;97507.41;5022933;28;20063;-70
2021/10/21 08:19:29;;;;;;;17.10;8.93;;;;;;;13.35;73.26;97517.19;5021390;28;20057;-69
2021/10/21 08:21:57;;;;;;;16.17;9.70;;;;;;;13.65;72.39;97497.69;5023933;28;20365;-61
2021/10/21 08:24:24;;;;;;;15.50;9.10;;;;;;;13.88;71.64;97511.50;5025227;28;20050;-66
2021/10/21 08:26:52;;;;;;;16.35;10.05;;;;;;;12.45;71.18;97367.31;5024068;28;20109;-60
2021/10/21 08:29:22;;;;;;;18.80;9.82;;;;;;;12.35;72.54;97394.91;5023819;28;20526;-61
2021/10/21 08:31:56;;;;;;;16.13;9.30;;;;;;;12.60;72.29;97435.81;5023032;28;20061;-64
2021/10/21 08:34:22;;;;;;;19.17;10.60;;;;;;;13.10;72.70;97488.22;5023837;28;20049;-62
2021/10/21 08:36:49;;;;;;;27.33;11.50;;;;;;;12.38;73.14;97378.31;5035942;28;20428;-63
2021/10/21 08:39:16;;;;;;;15.93;9.85;;;;;;;13.00;70.65;97424.91;5033334;28;20187;-69
2021/10/21 08:41:45;;;;;;;17.02;9.35;;;;;;;13.69;69.65;97431.72;5025130;28;20063;-65
2021/10/21 08:44:12;;;;;;;16.52;8.98;;;;;;;13.13;67.96;97303.91;5036825;28;20098;-64
2021/10/21 08:46:40;;;;;;;21.98;11.82;;;;;;;13.46;68.43;97390.13;5023375;28;20118;-68
2021/10/21 08:49:06;;;;;;;34.75;14.68;;;;;;;13.57;70.09;97462.59;5023102;28;20054;-62
2021/10/21 08:51:34;;;;;;;27.95;13.40;;;;;;;13.90;69.56;97420.00;5024133;28;20050;-62
2021/10/21 08:54:04;;;;;;;17.52;10.75;;;;;;;13.88;67.44;97355.56;5024214;28;20060;-60
2021/10/21 08:56:32;;;;;;;17.58;10.18;;;;;;;14.51;66.54;97406.25;5023264;28;20073;-71
2021/10/21 08:59:02;;;;;;;19.10;10.68;;;;;;;15.02;65.70;97446.03;5022114;28;20049;-67
2021/10/21 09:01:42;;;;;;;14.77;9.93;;;;;;;13.66;64.68;97232.84;5022121;28;20088;-70
2021/10/21 09:09:29;;;;;;;15.60;8.73;;;;;;;15.52;61.05;97436.78;5024860;28;20053;-66
2021/10/21 09:12:17;;;;;;;16.45;9.60;;;;;;;15.92;61.06;97424.50;5023354;28;20053;-60
2021/10/21 09:14:49;;;;;;;15.98;8.80;;;;;;;15.45;60.36;97325.06;5022840;28;20049;-66
2021/10/21 09:17:26;;;;;;;21.50;8.82;;;;;;;16.14;59.75;97424.16;5024072;28;20061;-68
2021/10/21 09:19:54;;;;;;;14.70;8.80;;;;;;;16.32;58.26;97421.38;5023452;28;20056;-61
2021/10/21 09:22:25;;;;;;;13.20;9.10;;;;;;;16.12;58.52;97423.75;5023604;28;20143;-61
2021/10/21 09:24:53;;;;;;;13.45;8.55;;;;;;;16.34;58.01;97413.41;5023520;28;20111;-59
2021/10/21 09:27:25;;;;;;;11.15;8.38;;;;;;;16.47;57.96;97406.25;5022780;28;20052;-61
2021/10/21 09:29:55;;;;;;;16.23;10.07;;;;;;;16.35;58.83;97362.66;5022959;28;20049;-66
2021/10/21 09:32:28;;;;;;;15.07;9.90;;;;;;;16.39;59.07;97394.22;5022499;28;20611;-62
2021/10/21 09:34:57;;;;;;;14.13;9.18;;;;;;;16.59;58.21;97394.63;5022219;28;20528;-67
2021/10/21 09:37:26;;;;;;;11.77;8.27;;;;;;;16.71;57.64;97387.84;5019230;28;20061;-66
2021/10/21 09:39:56;;;;;;;15.10;9.43;;;;;;;15.58;59.08;97185.84;5014912;28;20575;-59
2021/10/21 09:42:30;;;;;;;14.07;8.18;;;;;;;16.75;57.65;97350.25;5022987;28;20053;-59
2021/10/21 09:45:20;;;;;;;21.48;9.10;;;;;;;17.21;58.07;97366.91;5021527;28;20079;-68
2021/10/21 09:49:25;;;;;;;14.88;9.27;;;;;;;16.43;59.71;97369.84;5120591;27;20405;-65
2021/10/21 09:51:52;;;;;;;14.10;8.60;;;;;;;16.53;59.21;97360.66;5097068;28;20442;-67
2021/10/21 09:54:19;;;;;;;12.18;8.45;;;;;;;15.43;60.13;97277.19;5098321;28;20131;-59
2021/10/21 09:57:05;;;;;;;12.20;8.35;;;;;;;15.76;60.42;97248.09;5095554;28;20051;-65
2021/10/21 09:59:35;;;;;;;13.82;8.82;;;;;;;16.96;59.15;97352.19;5095856;28;20510;-63
2021/10/21 10:02:16;;;;;;;14.20;8.95;;;;;;;16.80;57.75;97346.25;5082619;28;20628;-61
2021/10/21 10:07:11;;;;;;;12.15;8.18;;;;;;;16.60;57.97;97246.00;4974877;28;20416;-62
2021/10/21 10:09:38;;;;;;;14.55;8.07;;;;;;;16.98;58.16;97247.03;4957662;28;20046;-72
2021/10/21 10:12:05;;;;;;;12.68;8.32;;;;;;;17.01;55.57;97251.03;4958729;28;20182;-65
2021/10/21 10:14:45;;;;;;;14.38;8.85;;;;;;;16.71;56.29;97231.19;4961768;28;20062;-62
2021/10/21 10:17:14;;;;;;;12.82;7.65;;;;;;;17.54;55.10;97282.34;4961569;28;20059;-65
2021/10/21 10:19:43;;;;;;;15.18;9.45;;;;;;;17.94;54.90;97316.09;4959406;28;20055;-66
2021/10/21 10:22:19;;;;;;;10.20;7.20;;;;;;;18.19;54.52;97315.91;4948182;28;20449;-65
2021/10/21 10:24:47;;;;;;;12.55;8.18;;;;;;;18.08;55.05;97281.56;4946054;28;20051;-60
2021/10/21 10:27:32;;;;;;;14.30;9.13;;;;;;;17.14;54.05;97238.16;4954432;28;20073;-63
2021/10/21 10:30:01;;;;;;;15.18;9.07;;;;;;;16.26;55.62;97155.41;4941504;28;20166;-62
2021/10/21 10:32:37;;;;;;;12.90;8.20;;;;;;;17.63;54.75;97294.69;4942723;28;20057;-69
2021/10/21 10:35:29;;;;;;;12.00;8.48;;;;;;;17.55;56.35;97286.75;4954111;28;20054;-72
2021/10/21 10:38:04;;;;;;;13.25;8.90;;;;;;;16.84;55.53;97146.38;4941284;28;20056;-67
2021/10/21 10:40:42;;;;;;;12.38;8.25;;;;;;;17.27;56.48;97287.69;4953982;28;20070;-65
2021/10/21 10:43:14;;;;;;;12.60;8.73;;;;;;;15.86;55.58;96988.28;4959855;28;20059;-62
2021/10/21 10:46:01;;;;;;;14.07;7.93;;;;;;;17.56;54.73;97215.53;4959528;28;20085;-65
2021/10/21 10:48:46;;;;;;;11.80;8.48;;;;;;;18.04;54.47;97258.34;4960975;28;20125;-68
2021/10/21 10:51:13;;;;;;;13.35;8.77;;;;;;;17.86;54.52;97213.66;4961694;28;20544;-64
2021/10/21 10:53:57;;;;;;;12.35;8.27;;;;;;;18.16;54.63;97241.03;4952105;28;20070;-68
2021/10/21 10:56:41;;;;;;;11.63;8.48;;;;;;;18.22;54.93;97249.78;4953419;28;20055;-73
2021/10/21 10:59:20;;;;;;;9.90;7.85;;;;;;;17.52;53.67;97102.69;4959390;28;20051;-66
2021/10/21 11:01:48;;;;;;;11.43;8.10;;;;;;;16.08;54.00;96947.88;4958873;28;20134;-68
2021/10/21 11:04:54;;;;;;;9.68;8.52;;;;;;;18.35;53.23;97237.63;4960744;28;20074;-70
2021/10/21 11:07:27;;;;;;;13.00;8.60;;;;;;;18.14;54.29;97229.41;4981313;28;20046;-72
2021/10/21 11:10:22;;;;;;;16.20;8.60;;;;;;;18.20;54.56;97222.16;4980107;28;20086;-70
2021/10/21 11:12:52;;;;;;;11.32;7.82;;;;;;;17.84;53.72;97159.22;4977876;28;20341;-66
2021/10/21 11:15:38;;;;;;;11.35;7.90;;;;;;;16.31;54.02;96922.94;4977739;28;20517;-67
2021/10/21 11:18:05;;;;;;;12.30;8.43;;;;;;;17.93;54.65;97139.91;4950764;28;20055;-63
2021/10/21 11:20:32;;;;;;;11.07;8.32;;;;;;;18.64;53.80;97207.25;4955896;28;20497;-70
2021/10/21 11:22:59;;;;;;;13.68;8.43;;;;;;;18.82;53.53;97207.84;4965152;28;20521;-64
2021/10/21 11:25:31;;;;;;;12.02;8.38;;;;;;;18.14;53.17;97064.00;4964383;28;20827;-64
2021/10/21 11:27:58;;;;;;;15.02;9.38;;;;;;;18.77;53.03;97127.72;4967165;28;20054;-62
2021/10/21 11:30:28;;;;;;;15.57;8.63;;;;;;;16.57;51.89;96812.50;4965391;28;20053;-71
2021/10/21 11:33:08;;;;;;;12.80;8.30;;;;;;;18.79;52.70;97192.66;4967451;28;20148;-64
2021/10/21 11:35:38;;;;;;;13.85;9.20;;;;;;;18.92;52.86;97190.84;4963808;28;20157;-64
2021/10/21 11:38:10;;;;;;;15.05;9.93;;;;;;;18.23;53.39;97047.44;4959454;28;20055;-65